sensor_id;sensor_type;location;lat;lon;timestamp;P1;durP1;ratioP1;P2;durP2;ratioP2
19897;SDS011;10111;50.814;4.572;2023-09-19T00:00:36;6.30;;;2.00;;
19897;SDS011;10111;50.814;4.572;2023-09-19T00:03:02;7.67;;;1.93;;
19897;SDS011;10111;50.814;4.572;2023-09-19T00:05:29;6.67;;;2.37;;
19897;SDS011;10111;50.814;4.572;2023-09-19T00:07:56;6.50;;;2.20;;
19897;SDS011;10111;50.814;4.572;2023-09-19T00:10:25;8.90;;;2.40;;
19897;SDS011;10111;50.814;4.572;2023-09-19T00:12:52;7.40;;;2.80;;
19897;SDS011;10111;50.814;4.572;2023-09-19T00:15:22;9.73;;;2.50;;
19897;SDS011;10111;50.814;4.572;2023-09-19T00:17:48;8.23;;;2.00;;
19897;SDS011;10111;50.814;4.572;2023-09-19T00:20:14;7.83;;;1.83;;
19897;SDS011;10111;50.814;4.572;2023-09-19T00:22:43;14.13;;;3.30;;
19897;SDS011;10111;50.814;4.572;2023-09-19T00:25:08;6.87;;;2.20;;
19897;SDS011;10111;50.814;4.572;2023-09-19T00:27:35;15.30;;;3.20;;
19897;SDS011;10111;50.814;4.572;2023-09-19T00:30:06;5.27;;;2.50;;
19897;SDS011;10111;50.814;4.572;2023-09-19T00:32:34;9.23;;;2.10;;
19897;SDS011;10111;50.814;4.572;2023-09-19T00:34:59;11.20;;;3.40;;
19897;SDS011;10111;50.814;4.572;2023-09-19T00:37:25;9.23;;;3.37;;
19897;SDS011;10111;50.814;4.572;2023-09-19T00:39:51;14.77;;;2.73;;
19897;SDS011;10111;50.814;4.572;2023-09-19T00:42:20;7.53;;;2.40;;
19897;SDS011;10111;50.814;4.572;2023-09-19T00:44:46;14.63;;;4.03;;
19897;SDS011;10111;50.814;4.572;2023-09-19T00:47:12;8.13;;;2.23;;
19897;SDS011;10111;50.814;4.572;2023-09-19T00:49:43;5.73;;;2.13;;
19897;SDS011;10111;50.814;4.572;2023-09-19T00:52:10;6.77;;;2.83;;
19897;SDS011;10111;50.814;4.572;2023-09-19T00:54:37;8.43;;;2.40;;
19897;SDS011;10111;50.814;4.572;2023-09-19T00:57:03;9.27;;;2.60;;
19897;SDS011;10111;50.814;4.572;2023-09-19T00:59:29;11.13;;;1.97;;
19897;SDS011;10111;50.814;4.572;2023-09-19T01:01:55;5.43;;;2.03;;
19897;SDS011;10111;50.814;4.572;2023-09-19T01:04:22;7.33;;;2.20;;
19897;SDS011;10111;50.814;4.572;2023-09-19T01:06:48;6.60;;;2.40;;
19897;SDS011;10111;50.814;4.572;2023-09-19T01:09:19;6.50;;;2.30;;
19897;SDS011;10111;50.814;4.572;2023-09-19T01:11:46;7.00;;;2.03;;
19897;SDS011;10111;50.814;4.572;2023-09-19T01:17:18;12.37;;;3.00;;
19897;SDS011;10111;50.814;4.572;2023-09-19T01:25:28;10.10;;;3.23;;
19897;SDS011;10111;50.814;4.572;2023-09-19T01:30:57;6.07;;;1.93;;
19897;SDS011;10111;50.814;4.572;2023-09-19T01:33:24;11.53;;;2.73;;
19897;SDS011;10111;50.814;4.572;2023-09-19T01:35:50;8.33;;;2.07;;
19897;SDS011;10111;50.814;4.572;2023-09-19T01:38:17;5.90;;;2.47;;
19897;SDS011;10111;50.814;4.572;2023-09-19T01:40:47;8.93;;;2.30;;
19897;SDS011;10111;50.814;4.572;2023-09-19T01:43:26;13.70;;;2.87;;
19897;SDS011;10111;50.814;4.572;2023-09-19T01:48:40;5.37;;;2.37;;
19897;SDS011;10111;50.814;4.572;2023-09-19T01:51:13;5.30;;;2.67;;
19897;SDS011;10111;50.814;4.572;2023-09-19T01:54:08;7.23;;;2.57;;
19897;SDS011;10111;50.814;4.572;2023-09-19T01:56:36;7.60;;;2.00;;
19897;SDS011;10111;50.814;4.572;2023-09-19T01:59:10;9.60;;;2.60;;
19897;SDS011;10111;50.814;4.572;2023-09-19T02:01:38;11.57;;;2.80;;
19897;SDS011;10111;50.814;4.572;2023-09-19T02:04:06;12.03;;;2.17;;
19897;SDS011;10111;50.814;4.572;2023-09-19T02:06:32;9.57;;;3.13;;
19897;SDS011;10111;50.814;4.572;2023-09-19T02:08:59;16.03;;;2.70;;
19897;SDS011;10111;50.814;4.572;2023-09-19T02:11:25;12.30;;;2.77;;
19897;SDS011;10111;50.814;4.572;2023-09-19T02:13:51;9.17;;;2.87;;
19897;SDS011;10111;50.814;4.572;2023-09-19T02:16:19;12.20;;;2.17;;
19897;SDS011;10111;50.814;4.572;2023-09-19T02:18:47;9.43;;;2.60;;
19897;SDS011;10111;50.814;4.572;2023-09-19T02:21:16;17.60;;;3.40;;
19897;SDS011;10111;50.814;4.572;2023-09-19T02:23:43;13.10;;;2.63;;
19897;SDS011;10111;50.814;4.572;2023-09-19T02:26:09;12.57;;;3.47;;
19897;SDS011;10111;50.814;4.572;2023-09-19T02:28:36;8.63;;;2.73;;
19897;SDS011;10111;50.814;4.572;2023-09-19T02:31:02;7.50;;;2.33;;
19897;SDS011;10111;50.814;4.572;2023-09-19T02:33:30;14.47;;;2.80;;
19897;SDS011;10111;50.814;4.572;2023-09-19T02:35:57;11.40;;;2.83;;
19897;SDS011;10111;50.814;4.572;2023-09-19T02:38:24;10.90;;;2.90;;
19897;SDS011;10111;50.814;4.572;2023-09-19T02:40:51;7.70;;;2.87;;
19897;SDS011;10111;50.814;4.572;2023-09-19T02:43:17;9.07;;;2.93;;
19897;SDS011;10111;50.814;4.572;2023-09-19T02:45:44;5.27;;;2.03;;
19897;SDS011;10111;50.814;4.572;2023-09-19T02:48:11;12.07;;;3.13;;
19897;SDS011;10111;50.814;4.572;2023-09-19T02:50:37;10.93;;;3.17;;
19897;SDS011;10111;50.814;4.572;2023-09-19T02:53:04;9.10;;;2.80;;
19897;SDS011;10111;50.814;4.572;2023-09-19T02:55:31;6.63;;;2.63;;
19897;SDS011;10111;50.814;4.572;2023-09-19T02:57:56;13.53;;;2.77;;
19897;SDS011;10111;50.814;4.572;2023-09-19T03:00:22;13.37;;;2.60;;
19897;SDS011;10111;50.814;4.572;2023-09-19T03:02:49;13.33;;;2.53;;
19897;SDS011;10111;50.814;4.572;2023-09-19T03:05:16;9.53;;;2.57;;
19897;SDS011;10111;50.814;4.572;2023-09-19T03:07:43;15.27;;;2.70;;
19897;SDS011;10111;50.814;4.572;2023-09-19T03:10:11;6.60;;;2.30;;
19897;SDS011;10111;50.814;4.572;2023-09-19T03:12:36;14.03;;;2.50;;
19897;SDS011;10111;50.814;4.572;2023-09-19T03:15:03;10.80;;;2.20;;
19897;SDS011;10111;50.814;4.572;2023-09-19T03:17:29;9.53;;;3.20;;
19897;SDS011;10111;50.814;4.572;2023-09-19T03:19:55;10.53;;;3.00;;
19897;SDS011;10111;50.814;4.572;2023-09-19T03:22:22;11.77;;;2.57;;
19897;SDS011;10111;50.814;4.572;2023-09-19T03:24:49;11.13;;;3.17;;
19897;SDS011;10111;50.814;4.572;2023-09-19T03:27:15;12.03;;;3.17;;
19897;SDS011;10111;50.814;4.572;2023-09-19T03:29:41;9.20;;;2.20;;
19897;SDS011;10111;50.814;4.572;2023-09-19T03:32:07;12.37;;;3.10;;
19897;SDS011;10111;50.814;4.572;2023-09-19T03:34:36;11.43;;;2.87;;
19897;SDS011;10111;50.814;4.572;2023-09-19T03:37:05;12.07;;;2.97;;
19897;SDS011;10111;50.814;4.572;2023-09-19T03:39:31;7.80;;;2.30;;
19897;SDS011;10111;50.814;4.572;2023-09-19T03:41:57;7.27;;;2.33;;
19897;SDS011;10111;50.814;4.572;2023-09-19T03:44:23;11.73;;;3.03;;
19897;SDS011;10111;50.814;4.572;2023-09-19T03:46:49;11.80;;;2.90;;
19897;SDS011;10111;50.814;4.572;2023-09-19T03:49:15;9.70;;;2.47;;
19897;SDS011;10111;50.814;4.572;2023-09-19T03:51:40;11.57;;;2.93;;
19897;SDS011;10111;50.814;4.572;2023-09-19T03:54:06;9.13;;;2.90;;
19897;SDS011;10111;50.814;4.572;2023-09-19T03:56:32;11.33;;;2.90;;
19897;SDS011;10111;50.814;4.572;2023-09-19T03:58:58;6.77;;;2.60;;
19897;SDS011;10111;50.814;4.572;2023-09-19T04:01:24;7.67;;;2.50;;
19897;SDS011;10111;50.814;4.572;2023-09-19T04:03:51;8.47;;;3.10;;
19897;SDS011;10111;50.814;4.572;2023-09-19T04:06:18;8.33;;;2.53;;
19897;SDS011;10111;50.814;4.572;2023-09-19T04:08:44;6.80;;;2.70;;
19897;SDS011;10111;50.814;4.572;2023-09-19T04:11:11;6.77;;;2.10;;
19897;SDS011;10111;50.814;4.572;2023-09-19T04:13:36;7.10;;;2.60;;
19897;SDS011;10111;50.814;4.572;2023-09-19T04:16:02;9.73;;;3.03;;
19897;SDS011;10111;50.814;4.572;2023-09-19T04:18:35;7.10;;;2.57;;
19897;SDS011;10111;50.814;4.572;2023-09-19T04:21:03;8.73;;;2.77;;
19897;SDS011;10111;50.814;4.572;2023-09-19T04:23:30;9.13;;;2.40;;
19897;SDS011;10111;50.814;4.572;2023-09-19T04:25:59;12.17;;;2.80;;
19897;SDS011;10111;50.814;4.572;2023-09-19T04:28:25;6.27;;;2.83;;
19897;SDS011;10111;50.814;4.572;2023-09-19T04:30:52;8.70;;;2.67;;
19897;SDS011;10111;50.814;4.572;2023-09-19T04:33:18;7.07;;;2.47;;
19897;SDS011;10111;50.814;4.572;2023-09-19T04:35:44;10.97;;;2.93;;
19897;SDS011;10111;50.814;4.572;2023-09-19T04:38:10;9.67;;;2.60;;
19897;SDS011;10111;50.814;4.572;2023-09-19T04:40:36;10.17;;;2.73;;
19897;SDS011;10111;50.814;4.572;2023-09-19T04:43:04;9.07;;;2.33;;
19897;SDS011;10111;50.814;4.572;2023-09-19T04:45:31;10.10;;;2.73;;
19897;SDS011;10111;50.814;4.572;2023-09-19T04:47:56;9.20;;;2.50;;
19897;SDS011;10111;50.814;4.572;2023-09-19T04:50:22;9.00;;;2.83;;
19897;SDS011;10111;50.814;4.572;2023-09-19T04:52:49;8.30;;;2.70;;
19897;SDS011;10111;50.814;4.572;2023-09-19T04:55:17;9.53;;;3.30;;
19897;SDS011;10111;50.814;4.572;2023-09-19T04:57:44;6.97;;;2.27;;
19897;SDS011;10111;50.814;4.572;2023-09-19T05:00:14;8.30;;;2.80;;
19897;SDS011;10111;50.814;4.572;2023-09-19T05:02:42;10.13;;;3.00;;
19897;SDS011;10111;50.814;4.572;2023-09-19T05:05:08;11.07;;;3.27;;
19897;SDS011;10111;50.814;4.572;2023-09-19T05:07:44;11.20;;;2.93;;
19897;SDS011;10111;50.814;4.572;2023-09-19T05:10:10;10.87;;;3.73;;
19897;SDS011;10111;50.814;4.572;2023-09-19T05:12:37;9.40;;;2.60;;
19897;SDS011;10111;50.814;4.572;2023-09-19T05:15:03;6.77;;;2.03;;
19897;SDS011;10111;50.814;4.572;2023-09-19T05:17:30;6.00;;;2.40;;
19897;SDS011;10111;50.814;4.572;2023-09-19T05:19:56;14.50;;;3.00;;
19897;SDS011;10111;50.814;4.572;2023-09-19T05:22:23;8.20;;;2.80;;
19897;SDS011;10111;50.814;4.572;2023-09-19T05:24:49;7.93;;;2.30;;
19897;SDS011;10111;50.814;4.572;2023-09-19T05:27:16;12.07;;;2.60;;
19897;SDS011;10111;50.814;4.572;2023-09-19T05:29:45;8.00;;;2.57;;
19897;SDS011;10111;50.814;4.572;2023-09-19T05:32:11;12.50;;;2.87;;
19897;SDS011;10111;50.814;4.572;2023-09-19T05:34:37;10.67;;;2.60;;
19897;SDS011;10111;50.814;4.572;2023-09-19T05:37:03;8.93;;;2.17;;
19897;SDS011;10111;50.814;4.572;2023-09-19T05:39:33;5.40;;;2.47;;
19897;SDS011;10111;50.814;4.572;2023-09-19T05:41:59;7.50;;;3.60;;
19897;SDS011;10111;50.814;4.572;2023-09-19T05:44:25;8.43;;;2.80;;
19897;SDS011;10111;50.814;4.572;2023-09-19T05:46:51;10.63;;;2.53;;
19897;SDS011;10111;50.814;4.572;2023-09-19T05:49:18;11.03;;;2.70;;
19897;SDS011;10111;50.814;4.572;2023-09-19T05:51:46;12.03;;;2.80;;
19897;SDS011;10111;50.814;4.572;2023-09-19T05:54:12;10.13;;;2.47;;
19897;SDS011;10111;50.814;4.572;2023-09-19T05:56:38;8.23;;;2.80;;
19897;SDS011;10111;50.814;4.572;2023-09-19T05:59:03;13.43;;;2.30;;
19897;SDS011;10111;50.814;4.572;2023-09-19T06:01:30;8.20;;;2.37;;
19897;SDS011;10111;50.814;4.572;2023-09-19T06:03:57;9.43;;;2.20;;
19897;SDS011;10111;50.814;4.572;2023-09-19T06:06:25;10.50;;;2.63;;
19897;SDS011;10111;50.814;4.572;2023-09-19T06:08:51;19.63;;;3.43;;
19897;SDS011;10111;50.814;4.572;2023-09-19T06:11:16;15.80;;;3.70;;
19897;SDS011;10111;50.814;4.572;2023-09-19T06:13:45;7.07;;;2.60;;
19897;SDS011;10111;50.814;4.572;2023-09-19T06:16:12;13.93;;;2.73;;
19897;SDS011;10111;50.814;4.572;2023-09-19T06:18:38;9.07;;;2.30;;
19897;SDS011;10111;50.814;4.572;2023-09-19T06:21:04;8.70;;;2.53;;
19897;SDS011;10111;50.814;4.572;2023-09-19T06:23:33;11.57;;;2.33;;
19897;SDS011;10111;50.814;4.572;2023-09-19T06:26:00;7.73;;;2.50;;
19897;SDS011;10111;50.814;4.572;2023-09-19T06:28:25;16.03;;;3.30;;
19897;SDS011;10111;50.814;4.572;2023-09-19T06:30:53;9.00;;;2.90;;
19897;SDS011;10111;50.814;4.572;2023-09-19T06:33:19;10.67;;;2.63;;
19897;SDS011;10111;50.814;4.572;2023-09-19T06:35:46;12.10;;;2.73;;
19897;SDS011;10111;50.814;4.572;2023-09-19T06:38:13;6.40;;;2.10;;
19897;SDS011;10111;50.814;4.572;2023-09-19T06:40:40;8.53;;;2.77;;
19897;SDS011;10111;50.814;4.572;2023-09-19T06:43:09;12.87;;;2.83;;
19897;SDS011;10111;50.814;4.572;2023-09-19T06:45:35;12.33;;;2.67;;
19897;SDS011;10111;50.814;4.572;2023-09-19T06:48:01;13.60;;;2.83;;
19897;SDS011;10111;50.814;4.572;2023-09-19T06:50:28;13.23;;;2.87;;
19897;SDS011;10111;50.814;4.572;2023-09-19T06:52:55;21.73;;;4.00;;
19897;SDS011;10111;50.814;4.572;2023-09-19T06:55:22;11.73;;;2.87;;
19897;SDS011;10111;50.814;4.572;2023-09-19T06:57:56;12.50;;;2.90;;
19897;SDS011;10111;50.814;4.572;2023-09-19T07:00:23;7.17;;;2.87;;
19897;SDS011;10111;50.814;4.572;2023-09-19T07:05:26;13.20;;;3.47;;
19897;SDS011;10111;50.814;4.572;2023-09-19T07:07:53;11.13;;;2.63;;
19897;SDS011;10111;50.814;4.572;2023-09-19T07:10:20;6.93;;;2.67;;
19897;SDS011;10111;50.814;4.572;2023-09-19T07:12:53;8.43;;;2.90;;
19897;SDS011;10111;50.814;4.572;2023-09-19T07:15:25;9.00;;;3.17;;
19897;SDS011;10111;50.814;4.572;2023-09-19T07:17:52;6.30;;;2.57;;
19897;SDS011;10111;50.814;4.572;2023-09-19T07:20:21;9.20;;;2.53;;
19897;SDS011;10111;50.814;4.572;2023-09-19T07:22:50;10.33;;;2.40;;
19897;SDS011;10111;50.814;4.572;2023-09-19T07:25:16;8.67;;;2.50;;
19897;SDS011;10111;50.814;4.572;2023-09-19T07:27:42;5.33;;;2.50;;
19897;SDS011;10111;50.814;4.572;2023-09-19T07:30:08;10.17;;;3.13;;
19897;SDS011;10111;50.814;4.572;2023-09-19T07:32:34;12.43;;;3.40;;
19897;SDS011;10111;50.814;4.572;2023-09-19T07:35:02;9.97;;;2.83;;
19897;SDS011;10111;50.814;4.572;2023-09-19T07:37:29;6.43;;;2.20;;
19897;SDS011;10111;50.814;4.572;2023-09-19T07:39:56;6.30;;;2.60;;
19897;SDS011;10111;50.814;4.572;2023-09-19T07:42:22;10.07;;;2.40;;
19897;SDS011;10111;50.814;4.572;2023-09-19T07:44:48;9.87;;;2.50;;
19897;SDS011;10111;50.814;4.572;2023-09-19T07:47:15;8.67;;;2.33;;
19897;SDS011;10111;50.814;4.572;2023-09-19T07:49:42;9.90;;;2.63;;
19897;SDS011;10111;50.814;4.572;2023-09-19T07:52:08;5.77;;;2.50;;
19897;SDS011;10111;50.814;4.572;2023-09-19T07:54:34;6.60;;;2.10;;
19897;SDS011;10111;50.814;4.572;2023-09-19T07:57:01;7.67;;;2.57;;
19897;SDS011;10111;50.814;4.572;2023-09-19T07:59:27;8.70;;;3.07;;
19897;SDS011;10111;50.814;4.572;2023-09-19T08:01:53;9.60;;;2.50;;
19897;SDS011;10111;50.814;4.572;2023-09-19T08:04:22;7.63;;;3.40;;
19897;SDS011;10111;50.814;4.572;2023-09-19T08:06:50;6.73;;;2.50;;
19897;SDS011;10111;50.814;4.572;2023-09-19T08:09:17;7.90;;;2.60;;
19897;SDS011;10111;50.814;4.572;2023-09-19T08:11:46;6.03;;;2.40;;
19897;SDS011;10111;50.814;4.572;2023-09-19T08:14:12;5.67;;;2.10;;
19897;SDS011;10111;50.814;4.572;2023-09-19T08:16:39;6.97;;;2.00;;
19897;SDS011;10111;50.814;4.572;2023-09-19T08:19:05;8.40;;;2.20;;
19897;SDS011;10111;50.814;4.572;2023-09-19T08:21:31;7.20;;;2.20;;
19897;SDS011;10111;50.814;4.572;2023-09-19T08:23:57;8.80;;;2.70;;
19897;SDS011;10111;50.814;4.572;2023-09-19T08:26:22;10.63;;;2.60;;
19897;SDS011;10111;50.814;4.572;2023-09-19T08:28:49;7.83;;;2.43;;
19897;SDS011;10111;50.814;4.572;2023-09-19T08:31:16;8.30;;;2.47;;
19897;SDS011;10111;50.814;4.572;2023-09-19T08:33:42;7.53;;;2.97;;
19897;SDS011;10111;50.814;4.572;2023-09-19T08:36:12;11.93;;;3.00;;
19897;SDS011;10111;50.814;4.572;2023-09-19T08:38:39;6.97;;;2.20;;
19897;SDS011;10111;50.814;4.572;2023-09-19T08:41:05;7.70;;;1.97;;
19897;SDS011;10111;50.814;4.572;2023-09-19T08:43:32;9.10;;;3.53;;
19897;SDS011;10111;50.814;4.572;2023-09-19T08:48:42;4.70;;;1.90;;
19897;SDS011;10111;50.814;4.572;2023-09-19T08:51:16;6.57;;;2.20;;
19897;SDS011;10111;50.814;4.572;2023-09-19T08:53:52;9.77;;;2.80;;
19897;SDS011;10111;50.814;4.572;2023-09-19T08:56:19;12.73;;;3.27;;
19897;SDS011;10111;50.814;4.572;2023-09-19T08:58:51;10.17;;;1.93;;
19897;SDS011;10111;50.814;4.572;2023-09-19T09:01:21;6.07;;;2.17;;
19897;SDS011;10111;50.814;4.572;2023-09-19T09:03:51;9.83;;;2.57;;
19897;SDS011;10111;50.814;4.572;2023-09-19T09:06:18;12.63;;;3.00;;
19897;SDS011;10111;50.814;4.572;2023-09-19T09:08:45;10.90;;;3.37;;
19897;SDS011;10111;50.814;4.572;2023-09-19T09:11:12;9.37;;;1.83;;
19897;SDS011;10111;50.814;4.572;2023-09-19T09:13:40;8.37;;;2.50;;
19897;SDS011;10111;50.814;4.572;2023-09-19T09:16:07;6.30;;;2.20;;
19897;SDS011;10111;50.814;4.572;2023-09-19T09:18:33;6.07;;;2.30;;
19897;SDS011;10111;50.814;4.572;2023-09-19T09:20:59;7.93;;;1.73;;
19897;SDS011;10111;50.814;4.572;2023-09-19T09:23:26;8.60;;;2.10;;
19897;SDS011;10111;50.814;4.572;2023-09-19T09:25:54;10.03;;;2.40;;
19897;SDS011;10111;50.814;4.572;2023-09-19T09:28:27;5.57;;;2.00;;
19897;SDS011;10111;50.814;4.572;2023-09-19T09:30:55;3.03;;;1.80;;
19897;SDS011;10111;50.814;4.572;2023-09-19T09:33:25;6.30;;;1.90;;
19897;SDS011;10111;50.814;4.572;2023-09-19T09:35:55;6.60;;;2.50;;
19897;SDS011;10111;50.814;4.572;2023-09-19T09:38:24;9.57;;;2.10;;
19897;SDS011;10111;50.814;4.572;2023-09-19T09:40:52;6.00;;;2.60;;
19897;SDS011;10111;50.814;4.572;2023-09-19T09:43:28;5.47;;;1.57;;
19897;SDS011;10111;50.814;4.572;2023-09-19T09:46:06;6.20;;;2.50;;
19897;SDS011;10111;50.814;4.572;2023-09-19T09:49:01;7.47;;;2.77;;
19897;SDS011;10111;50.814;4.572;2023-09-19T09:51:50;5.47;;;2.03;;
19897;SDS011;10111;50.814;4.572;2023-09-19T09:54:24;7.67;;;2.97;;
19897;SDS011;10111;50.814;4.572;2023-09-19T09:57:01;6.13;;;2.50;;
19897;SDS011;10111;50.814;4.572;2023-09-19T10:02:18;5.77;;;1.63;;
19897;SDS011;10111;50.814;4.572;2023-09-19T10:04:57;8.03;;;2.27;;
19897;SDS011;10111;50.814;4.572;2023-09-19T10:07:34;22.23;;;3.63;;
19897;SDS011;10111;50.814;4.572;2023-09-19T10:10:04;7.40;;;1.90;;
19897;SDS011;10111;50.814;4.572;2023-09-19T10:12:50;8.93;;;2.87;;
19897;SDS011;10111;50.814;4.572;2023-09-19T10:15:21;4.63;;;1.23;;
19897;SDS011;10111;50.814;4.572;2023-09-19T10:17:51;8.47;;;1.70;;
19897;SDS011;10111;50.814;4.572;2023-09-19T10:20:21;7.63;;;1.53;;
19897;SDS011;10111;50.814;4.572;2023-09-19T10:23:09;15.17;;;2.50;;
19897;SDS011;10111;50.814;4.572;2023-09-19T10:25:44;9.63;;;2.23;;
19897;SDS011;10111;50.814;4.572;2023-09-19T10:28:13;5.63;;;1.63;;
19897;SDS011;10111;50.814;4.572;2023-09-19T10:30:41;5.63;;;1.60;;
19897;SDS011;10111;50.814;4.572;2023-09-19T10:33:12;4.97;;;1.37;;
19897;SDS011;10111;50.814;4.572;2023-09-19T10:35:40;5.03;;;2.03;;
19897;SDS011;10111;50.814;4.572;2023-09-19T10:38:11;7.70;;;1.70;;
19897;SDS011;10111;50.814;4.572;2023-09-19T10:40:39;4.40;;;1.40;;
19897;SDS011;10111;50.814;4.572;2023-09-19T10:43:15;11.00;;;2.33;;
19897;SDS011;10111;50.814;4.572;2023-09-19T10:45:46;2.87;;;1.30;;
19897;SDS011;10111;50.814;4.572;2023-09-19T10:48:15;6.90;;;1.73;;
19897;SDS011;10111;50.814;4.572;2023-09-19T10:50:51;3.77;;;1.57;;
19897;SDS011;10111;50.814;4.572;2023-09-19T10:53:24;5.80;;;1.70;;
19897;SDS011;10111;50.814;4.572;2023-09-19T10:55:56;4.37;;;1.20;;
19897;SDS011;10111;50.814;4.572;2023-09-19T10:58:28;5.77;;;1.60;;
19897;SDS011;10111;50.814;4.572;2023-09-19T11:00:59;6.47;;;1.77;;
19897;SDS011;10111;50.814;4.572;2023-09-19T11:03:40;5.00;;;1.63;;
19897;SDS011;10111;50.814;4.572;2023-09-19T11:08:51;3.43;;;1.33;;
19897;SDS011;10111;50.814;4.572;2023-09-19T11:11:54;3.63;;;1.20;;
19897;SDS011;10111;50.814;4.572;2023-09-19T11:30:39;4.30;;;1.20;;
19897;SDS011;10111;50.814;4.572;2023-09-19T11:33:21;2.80;;;1.47;;
19897;SDS011;10111;50.814;4.572;2023-09-19T11:36:06;1.90;;;1.43;;
19897;SDS011;10111;50.814;4.572;2023-09-19T11:43:47;4.87;;;1.20;;
19897;SDS011;10111;50.814;4.572;2023-09-19T11:46:15;5.13;;;1.10;;
19897;SDS011;10111;50.814;4.572;2023-09-19T11:48:43;1.77;;;1.00;;
19897;SDS011;10111;50.814;4.572;2023-09-19T11:51:23;6.57;;;1.30;;
19897;SDS011;10111;50.814;4.572;2023-09-19T11:53:56;4.37;;;1.73;;
19897;SDS011;10111;50.814;4.572;2023-09-19T11:56:25;4.57;;;1.10;;
19897;SDS011;10111;50.814;4.572;2023-09-19T11:58:56;7.00;;;1.40;;
19897;SDS011;10111;50.814;4.572;2023-09-19T12:01:30;3.57;;;1.50;;
19897;SDS011;10111;50.814;4.572;2023-09-19T12:03:57;2.30;;;1.13;;
19897;SDS011;10111;50.814;4.572;2023-09-19T12:06:25;2.70;;;1.20;;
19897;SDS011;10111;50.814;4.572;2023-09-19T12:08:52;4.17;;;1.27;;
19897;SDS011;10111;50.814;4.572;2023-09-19T12:11:22;5.23;;;1.73;;
19897;SDS011;10111;50.814;4.572;2023-09-19T12:13:50;3.13;;;1.20;;
19897;SDS011;10111;50.814;4.572;2023-09-19T12:16:19;5.27;;;1.13;;
19897;SDS011;10111;50.814;4.572;2023-09-19T12:18:48;3.03;;;0.97;;
19897;SDS011;10111;50.814;4.572;2023-09-19T12:24:18;1.70;;;1.27;;
19897;SDS011;10111;50.814;4.572;2023-09-19T12:26:45;3.10;;;1.07;;
19897;SDS011;10111;50.814;4.572;2023-09-19T12:29:20;1.60;;;1.20;;
19897;SDS011;10111;50.814;4.572;2023-09-19T12:31:56;2.07;;;1.03;;
19897;SDS011;10111;50.814;4.572;2023-09-19T12:34:27;2.17;;;1.30;;
19897;SDS011;10111;50.814;4.572;2023-09-19T12:37:06;3.40;;;1.53;;
19897;SDS011;10111;50.814;4.572;2023-09-19T12:40:02;4.30;;;0.93;;
19897;SDS011;10111;50.814;4.572;2023-09-19T12:42:40;2.17;;;1.30;;
19897;SDS011;10111;50.814;4.572;2023-09-19T12:45:07;2.87;;;0.90;;
19897;SDS011;10111;50.814;4.572;2023-09-19T12:47:38;4.00;;;1.10;;
19897;SDS011;10111;50.814;4.572;2023-09-19T12:50:09;2.93;;;1.20;;
19897;SDS011;10111;50.814;4.572;2023-09-19T12:52:45;5.53;;;1.37;;
19897;SDS011;10111;50.814;4.572;2023-09-19T12:55:20;3.43;;;1.30;;
19897;SDS011;10111;50.814;4.572;2023-09-19T12:57:59;5.03;;;1.37;;
19897;SDS011;10111;50.814;4.572;2023-09-19T13:00:43;2.47;;;1.10;;
19897;SDS011;10111;50.814;4.572;2023-09-19T13:05:50;1.50;;;1.00;;
19897;SDS011;10111;50.814;4.572;2023-09-19T13:08:17;1.73;;;1.20;;
19897;SDS011;10111;50.814;4.572;2023-09-19T13:13:31;4.33;;;1.53;;
19897;SDS011;10111;50.814;4.572;2023-09-19T13:15:58;6.40;;;1.20;;
19897;SDS011;10111;50.814;4.572;2023-09-19T13:18:26;3.73;;;1.70;;
19897;SDS011;10111;50.814;4.572;2023-09-19T13:21:05;6.13;;;1.23;;
19897;SDS011;10111;50.814;4.572;2023-09-19T13:23:35;3.37;;;1.00;;
19897;SDS011;10111;50.814;4.572;2023-09-19T13:26:02;5.57;;;1.40;;
19897;SDS011;10111;50.814;4.572;2023-09-19T13:28:29;4.03;;;1.53;;
19897;SDS011;10111;50.814;4.572;2023-09-19T13:30:55;3.07;;;1.13;;
19897;SDS011;10111;50.814;4.572;2023-09-19T13:33:20;3.60;;;1.20;;
19897;SDS011;10111;50.814;4.572;2023-09-19T13:35:46;2.77;;;1.00;;
19897;SDS011;10111;50.814;4.572;2023-09-19T13:38:13;4.30;;;1.20;;
19897;SDS011;10111;50.814;4.572;2023-09-19T13:40:39;2.73;;;1.40;;
19897;SDS011;10111;50.814;4.572;2023-09-19T13:43:07;3.33;;;1.83;;
19897;SDS011;10111;50.814;4.572;2023-09-19T13:45:33;2.87;;;1.67;;
19897;SDS011;10111;50.814;4.572;2023-09-19T13:47:59;2.63;;;1.60;;
19897;SDS011;10111;50.814;4.572;2023-09-19T13:50:25;1.33;;;0.97;;
19897;SDS011;10111;50.814;4.572;2023-09-19T13:52:51;3.43;;;1.60;;
19897;SDS011;10111;50.814;4.572;2023-09-19T13:55:18;2.00;;;1.33;;
19897;SDS011;10111;50.814;4.572;2023-09-19T13:57:47;1.80;;;1.20;;
19897;SDS011;10111;50.814;4.572;2023-09-19T14:00:19;4.53;;;1.23;;
19897;SDS011;10111;50.814;4.572;2023-09-19T14:02:45;5.60;;;1.47;;
19897;SDS011;10111;50.814;4.572;2023-09-19T14:05:12;5.43;;;1.50;;
19897;SDS011;10111;50.814;4.572;2023-09-19T14:07:40;2.40;;;1.10;;
19897;SDS011;10111;50.814;4.572;2023-09-19T14:10:06;2.23;;;1.43;;
19897;SDS011;10111;50.814;4.572;2023-09-19T14:12:36;3.83;;;1.43;;
19897;SDS011;10111;50.814;4.572;2023-09-19T14:15:02;2.47;;;1.30;;
19897;SDS011;10111;50.814;4.572;2023-09-19T14:17:29;4.13;;;1.47;;
19897;SDS011;10111;50.814;4.572;2023-09-19T14:19:54;3.17;;;1.50;;
19897;SDS011;10111;50.814;4.572;2023-09-19T14:22:20;3.37;;;1.63;;
19897;SDS011;10111;50.814;4.572;2023-09-19T14:24:46;2.73;;;1.17;;
19897;SDS011;10111;50.814;4.572;2023-09-19T14:27:12;6.07;;;1.23;;
19897;SDS011;10111;50.814;4.572;2023-09-19T14:29:38;3.47;;;1.70;;
19897;SDS011;10111;50.814;4.572;2023-09-19T14:32:04;4.07;;;1.27;;
19897;SDS011;10111;50.814;4.572;2023-09-19T14:34:30;5.40;;;1.60;;
19897;SDS011;10111;50.814;4.572;2023-09-19T14:36:56;6.73;;;1.70;;
19897;SDS011;10111;50.814;4.572;2023-09-19T14:39:22;4.80;;;1.70;;
19897;SDS011;10111;50.814;4.572;2023-09-19T14:41:48;4.27;;;1.40;;
19897;SDS011;10111;50.814;4.572;2023-09-19T14:44:14;3.23;;;1.40;;
19897;SDS011;10111;50.814;4.572;2023-09-19T14:46:41;2.90;;;1.07;;
19897;SDS011;10111;50.814;4.572;2023-09-19T14:49:09;3.80;;;1.20;;
19897;SDS011;10111;50.814;4.572;2023-09-19T14:51:35;6.23;;;1.50;;
19897;SDS011;10111;50.814;4.572;2023-09-19T14:54:04;6.00;;;1.30;;
19897;SDS011;10111;50.814;4.572;2023-09-19T14:56:32;8.47;;;1.40;;
19897;SDS011;10111;50.814;4.572;2023-09-19T14:58:58;6.00;;;1.57;;
19897;SDS011;10111;50.814;4.572;2023-09-19T15:01:23;2.40;;;1.27;;
19897;SDS011;10111;50.814;4.572;2023-09-19T15:03:49;5.03;;;1.50;;
19897;SDS011;10111;50.814;4.572;2023-09-19T15:06:15;10.53;;;2.87;;
19897;SDS011;10111;50.814;4.572;2023-09-19T15:08:42;3.07;;;1.50;;
19897;SDS011;10111;50.814;4.572;2023-09-19T15:11:18;8.87;;;1.93;;
19897;SDS011;10111;50.814;4.572;2023-09-19T15:13:45;4.53;;;1.60;;
19897;SDS011;10111;50.814;4.572;2023-09-19T15:16:12;7.10;;;1.63;;
19897;SDS011;10111;50.814;4.572;2023-09-19T15:18:39;2.77;;;1.93;;
19897;SDS011;10111;50.814;4.572;2023-09-19T15:21:07;5.27;;;2.13;;
19897;SDS011;10111;50.814;4.572;2023-09-19T15:23:34;5.60;;;1.43;;
19897;SDS011;10111;50.814;4.572;2023-09-19T15:26:06;4.60;;;2.27;;
19897;SDS011;10111;50.814;4.572;2023-09-19T15:28:36;7.13;;;2.50;;
19897;SDS011;10111;50.814;4.572;2023-09-19T15:31:06;3.00;;;1.90;;
19897;SDS011;10111;50.814;4.572;2023-09-19T15:33:36;2.80;;;1.10;;
19897;SDS011;10111;50.814;4.572;2023-09-19T15:36:06;4.47;;;1.90;;
19897;SDS011;10111;50.814;4.572;2023-09-19T15:41:22;5.50;;;1.70;;
19897;SDS011;10111;50.814;4.572;2023-09-19T15:43:49;3.63;;;1.40;;
19897;SDS011;10111;50.814;4.572;2023-09-19T15:46:15;4.30;;;1.67;;
19897;SDS011;10111;50.814;4.572;2023-09-19T15:48:41;5.37;;;1.43;;
19897;SDS011;10111;50.814;4.572;2023-09-19T15:51:07;3.17;;;1.93;;